Aegean Orion — SVA2487 — position and weather

sailwx.info

Track history (hours):
 
Tides and Currents Weather Stations Pressure Air Temp Water Temp Dewpoint Dewpoint Depression Visibility Wind Speed Wind Dir Waves Ship Positions

Aegean Orion

Last reported at 2017-Feb-26 00:34 UTC. Time now 2017-Feb-26 07:38 UTC.
Position N 38°01' E 023°32'.

; draft 2.4 m.

Type: Ship. MMSI: 239550200.

Date/timePositionNaut miles runAvg speedWind from/ knotsBaromVisibWave heightAir tempDewpointWater temp
2017-Feb-26 00:34N 38°01' E 023°32'6 6.1
2017-Feb-25 23:33N 37°56' E 023°37'1 1.4
2017-Feb-25 22:33N 37°57' E 023°38'0 0.0
2017-Feb-25 21:33N 37°57' E 023°38'3 3.5
2017-Feb-25 20:33N 37°57' E 023°34'0 0.1
2017-Feb-25 19:33N 37°57' E 023°34'0 0.0
2017-Feb-25 18:34N 37°57' E 023°34'1 1.4
2017-Feb-25 17:33N 37°58' E 023°33'4 0.1
2017-Feb-24 11:30N 38°02' E 023°32'3 2.8
2017-Feb-24 10:34N 38°02' E 023°35'0 0.0
2017-Feb-24 09:33N 38°02' E 023°35'0 0.0
2017-Feb-24 08:33N 38°02' E 023°35'0 0.0
2017-Feb-24 07:33N 38°02' E 023°35'4 3.8
2017-Feb-24 06:34N 37°59' E 023°33'2 1.9
2017-Feb-24 05:34N 37°57' E 023°34'0 0.0
2017-Feb-24 04:33N 37°57' E 023°34'0 0.0
2017-Feb-24 03:34N 37°57' E 023°34'0 0.0
2017-Feb-24 02:33N 37°57' E 023°34'0 0.0
2017-Feb-24 01:33N 37°57' E 023°34'0 0.0
2017-Feb-24 00:34N 37°57' E 023°34'0 0.0
2017-Feb-23 23:34N 37°57' E 023°34'0 0.0
2017-Feb-23 22:33N 37°57' E 023°34'0 0.0
2017-Feb-23 21:34N 37°57' E 023°34'0 0.0
2017-Feb-23 20:33N 37°57' E 023°34'3 3.2
2017-Feb-23 19:33N 37°57' E 023°38'0 0.0
2017-Feb-23 18:33N 37°57' E 023°38'2 1.6
2017-Feb-23 17:33N 37°56' E 023°37'2 2.0
2017-Feb-23 16:33N 37°57' E 023°34'4 3.7
2017-Feb-23 15:34N 38°01' E 023°32'1 1.5
2017-Feb-23 14:33N 38°02' E 023°32'0 0.0
2017-Feb-23 13:33N 38°02' E 023°32'0 0.0
2017-Feb-23 12:33N 38°02' E 023°32'0 0.0
2017-Feb-23 11:33N 38°02' E 023°32'0 0.0
2017-Feb-23 10:33N 38°02' E 023°32'0 0.0
2017-Feb-23 09:33N 38°02' E 023°32'0 0.0
2017-Feb-23 08:33N 38°02' E 023°32'0 0.0
2017-Feb-23 07:33N 38°02' E 023°32'3 2.5
2017-Feb-23 06:33N 37°60' E 023°33'3 2.8
2017-Feb-23 05:33N 37°57' E 023°34'0 0.0
2017-Feb-23 04:33N 37°57' E 023°34'0 0.0
2017-Feb-23 03:34N 37°57' E 023°34'0 0.0
2017-Feb-23 02:34N 37°57' E 023°34'0 0.0
2017-Feb-23 01:33N 37°57' E 023°34'1 0.6
2017-Feb-23 00:33N 37°57' E 023°35'3 2.5
2017-Feb-22 23:33N 37°57' E 023°38'0 0.0
2017-Feb-22 22:34N 37°57' E 023°38'2 1.9
2017-Feb-22 21:34N 37°57' E 023°36'1 1.3
2017-Feb-22 20:33N 37°57' E 023°34'0 0.0
2017-Feb-22 19:34N 37°57' E 023°34'0 0.0
2017-Feb-22 18:34N 37°57' E 023°34'0 0.0
2017-Feb-22 17:34N 37°57' E 023°34'2 1.9
2017-Feb-22 16:34N 37°59' E 023°33'3 3.5
2017-Feb-22 15:33N 38°02' E 023°32'0 0.0
2017-Feb-22 14:33N 38°02' E 023°32'0 0.0
2017-Feb-22 13:33N 38°02' E 023°32'0 0.0
2017-Feb-22 12:33N 38°02' E 023°32'0 0.0
2017-Feb-22 11:34N 38°02' E 023°32'0 0.0
2017-Feb-21 14:33N 38°02' E 023°32'0 0.0
2017-Feb-21 13:33N 38°02' E 023°32'0 0.0
2017-Feb-21 12:33N 38°02' E 023°32'0 0.3
2017-Feb-21 11:33N 38°02' E 023°32'0 0.0
2017-Feb-21 10:33N 38°02' E 023°32'0 0.0
2017-Feb-21 09:33N 38°02' E 023°32'3 3.0
2017-Feb-21 08:33N 38°02' E 023°36'0 0.0
2017-Feb-21 07:33N 38°02' E 023°36'0 0.0
2017-Feb-21 06:33N 38°02' E 023°36'0 0.0
2017-Feb-21 05:33N 38°02' E 023°36'3 3.0
2017-Feb-21 04:33N 38°02' E 023°32'0 0.0
2017-Feb-20 16:23N 38°02' E 023°32'5 6.3
2017-Feb-20 15:33N 37°57' E 023°34'3 3.4
2017-Feb-20 14:33N 37°57' E 023°38'0 0.0
2017-Feb-20 13:33N 37°57' E 023°38'3 3.3
2017-Feb-20 12:33N 37°57' E 023°34'5 5.2
2017-Feb-20 11:33N 38°02' E 023°32'0 0.4
2017-Feb-20 10:33N 38°02' E 023°32'0 0.0
2017-Feb-20 09:33N 38°02' E 023°32'0 0.0
2017-Feb-20 08:33N 38°02' E 023°32'0 0.0
2017-Feb-20 07:33N 38°02' E 023°32'0 0.0
2017-Feb-20 06:33N 38°02' E 023°32'0 0.0
2017-Feb-18 10:22N 38°02' E 023°32'6 6.9
2017-Feb-18 09:33N 37°57' E 023°35'2 2.4
2017-Feb-18 08:33N 37°56' E 023°38'0 0.0
2017-Feb-18 07:33N 37°56' E 023°38'0 0.0
2017-Feb-18 06:33N 37°56' E 023°38'4 4.0
2017-Feb-18 05:33N 37°57' E 023°33'5 0.6
2017-Feb-17 21:17N 38°02' E 023°32'3 4.0
2017-Feb-17 20:34N 38°02' E 023°36'0 0.1
2017-Feb-17 19:34N 38°02' E 023°36'0 0.0
2017-Feb-17 18:34N 38°02' E 023°36'0 0.0
2017-Feb-17 17:33N 38°02' E 023°36'0 0.0
2017-Feb-17 16:33N 38°02' E 023°36'0 0.3
2017-Feb-17 15:34N 38°02' E 023°35'0 0.0
2017-Feb-17 14:33N 38°02' E 023°35'0 0.0
2017-Feb-17 13:33N 38°02' E 023°35'0 0.0
2017-Feb-17 12:33N 38°02' E 023°35'0 0.0
2017-Feb-17 11:34N 38°02' E 023°35'0 0.0
2017-Feb-17 10:34N 38°02' E 023°35'0 0.0
2017-Feb-17 09:34N 38°02' E 023°35'0 0.0
2017-Feb-17 08:33N 38°02' E 023°35'0 0.0
2017-Feb-17 07:34N 38°02' E 023°35'0 0.0
2017-Feb-17 06:33N 38°02' E 023°35'1 0.5
2017-Feb-17 05:34N 38°01' E 023°35'4 3.9
2017-Feb-17 04:33N 37°57' E 023°34'0 0.0
2017-Feb-17 03:34N 37°57' E 023°34'0 0.0
2017-Feb-17 02:33N 37°57' E 023°34'0 0.0
2017-Feb-17 01:34N 37°57' E 023°34'0 0.0
2017-Feb-17 00:34N 37°57' E 023°34'2 2.3
2017-Feb-16 23:34N 37°56' E 023°37'1 1.5
2017-Feb-16 22:33N 37°57' E 023°38'0 0.1
2017-Feb-16 21:34N 37°57' E 023°38'0 0.0
2017-Feb-16 20:34N 37°57' E 023°38'0 0.0
2017-Feb-16 19:33N 37°57' E 023°38'0 0.0
2017-Feb-16 18:34N 37°57' E 023°38'3 3.1
2017-Feb-16 17:34N 37°57' E 023°35'0 0.0
2017-Feb-16 16:33N 37°57' E 023°35'0 0.0
2017-Feb-16 15:34N 37°57' E 023°35'1 1.3
2017-Feb-16 14:33N 37°58' E 023°36'0 0.0
2017-Feb-16 13:34N 37°58' E 023°36'0 0.0
2017-Feb-16 12:34N 37°58' E 023°36'1 1.1
2017-Feb-16 11:34N 37°57' E 023°35'1 1.2
2017-Feb-16 10:34N 37°57' E 023°34'5 5.1
2017-Feb-16 09:34N 38°02' E 023°32'0 0.0
2017-Feb-16 08:33N 38°02' E 023°32'0 0.0
2017-Feb-16 07:34N 38°02' E 023°32'  
Track history (hours):
 
Tides and Currents Weather Stations Pressure Air Temp Water Temp Dewpoint Dewpoint Depression Visibility Wind Speed Wind Dir Waves Ship Positions

Aegean Orion

Last reported at 2017-Feb-26 00:34 UTC. Time now 2017-Feb-26 07:38 UTC.
Position N 38°01' E 023°32'.

; draft 2.4 m.

Type: Ship. MMSI: 239550200.

Date/timePositionNaut miles runAvg speedWind from/ knotsBaromVisibWave heightAir tempDewpointWater temp
2017-Feb-26 00:34N 38°01' E 023°32'6 6.1
2017-Feb-25 23:33N 37°56' E 023°37'1 1.4
2017-Feb-25 22:33N 37°57' E 023°38'0 0.0
2017-Feb-25 21:33N 37°57' E 023°38'3 3.5
2017-Feb-25 20:33N 37°57' E 023°34'0 0.1
2017-Feb-25 19:33N 37°57' E 023°34'0 0.0
2017-Feb-25 18:34N 37°57' E 023°34'1 1.4
2017-Feb-25 17:33N 37°58' E 023°33'4 0.1
2017-Feb-24 11:30N 38°02' E 023°32'3 2.8
2017-Feb-24 10:34N 38°02' E 023°35'0 0.0
2017-Feb-24 09:33N 38°02' E 023°35'0 0.0
2017-Feb-24 08:33N 38°02' E 023°35'0 0.0
2017-Feb-24 07:33N 38°02' E 023°35'4 3.8
2017-Feb-24 06:34N 37°59' E 023°33'2 1.9
2017-Feb-24 05:34N 37°57' E 023°34'0 0.0
2017-Feb-24 04:33N 37°57' E 023°34'0 0.0
2017-Feb-24 03:34N 37°57' E 023°34'0 0.0
2017-Feb-24 02:33N 37°57' E 023°34'0 0.0
2017-Feb-24 01:33N 37°57' E 023°34'0 0.0
2017-Feb-24 00:34N 37°57' E 023°34'0 0.0
2017-Feb-23 23:34N 37°57' E 023°34'0 0.0
2017-Feb-23 22:33N 37°57' E 023°34'0 0.0
2017-Feb-23 21:34N 37°57' E 023°34'0 0.0
2017-Feb-23 20:33N 37°57' E 023°34'3 3.2
2017-Feb-23 19:33N 37°57' E 023°38'0 0.0
2017-Feb-23 18:33N 37°57' E 023°38'2 1.6
2017-Feb-23 17:33N 37°56' E 023°37'2 2.0
2017-Feb-23 16:33N 37°57' E 023°34'4 3.7
2017-Feb-23 15:34N 38°01' E 023°32'1 1.5
2017-Feb-23 14:33N 38°02' E 023°32'0 0.0
2017-Feb-23 13:33N 38°02' E 023°32'0 0.0
2017-Feb-23 12:33N 38°02' E 023°32'0 0.0
2017-Feb-23 11:33N 38°02' E 023°32'0 0.0
2017-Feb-23 10:33N 38°02' E 023°32'0 0.0
2017-Feb-23 09:33N 38°02' E 023°32'0 0.0
2017-Feb-23 08:33N 38°02' E 023°32'0 0.0
2017-Feb-23 07:33N 38°02' E 023°32'3 2.5
2017-Feb-23 06:33N 37°60' E 023°33'3 2.8
2017-Feb-23 05:33N 37°57' E 023°34'0 0.0
2017-Feb-23 04:33N 37°57' E 023°34'0 0.0
2017-Feb-23 03:34N 37°57' E 023°34'0 0.0
2017-Feb-23 02:34N 37°57' E 023°34'0 0.0
2017-Feb-23 01:33N 37°57' E 023°34'1 0.6
2017-Feb-23 00:33N 37°57' E 023°35'3 2.5
2017-Feb-22 23:33N 37°57' E 023°38'0 0.0
2017-Feb-22 22:34N 37°57' E 023°38'2 1.9
2017-Feb-22 21:34N 37°57' E 023°36'1 1.3
2017-Feb-22 20:33N 37°57' E 023°34'0 0.0
2017-Feb-22 19:34N 37°57' E 023°34'0 0.0
2017-Feb-22 18:34N 37°57' E 023°34'0 0.0
2017-Feb-22 17:34N 37°57' E 023°34'2 1.9
2017-Feb-22 16:34N 37°59' E 023°33'3 3.5
2017-Feb-22 15:33N 38°02' E 023°32'0 0.0
2017-Feb-22 14:33N 38°02' E 023°32'0 0.0
2017-Feb-22 13:33N 38°02' E 023°32'0 0.0
2017-Feb-22 12:33N 38°02' E 023°32'0 0.0
2017-Feb-22 11:34N 38°02' E 023°32'0 0.0
2017-Feb-21 14:33N 38°02' E 023°32'0 0.0
2017-Feb-21 13:33N 38°02' E 023°32'0 0.0
2017-Feb-21 12:33N 38°02' E 023°32'0 0.3
2017-Feb-21 11:33N 38°02' E 023°32'0 0.0
2017-Feb-21 10:33N 38°02' E 023°32'0 0.0
2017-Feb-21 09:33N 38°02' E 023°32'3 3.0
2017-Feb-21 08:33N 38°02' E 023°36'0 0.0
2017-Feb-21 07:33N 38°02' E 023°36'0 0.0
2017-Feb-21 06:33N 38°02' E 023°36'0 0.0
2017-Feb-21 05:33N 38°02' E 023°36'3 3.0
2017-Feb-21 04:33N 38°02' E 023°32'0 0.0
2017-Feb-20 16:23N 38°02' E 023°32'5 6.3
2017-Feb-20 15:33N 37°57' E 023°34'3 3.4
2017-Feb-20 14:33N 37°57' E 023°38'0 0.0
2017-Feb-20 13:33N 37°57' E 023°38'3 3.3
2017-Feb-20 12:33N 37°57' E 023°34'5 5.2
2017-Feb-20 11:33N 38°02' E 023°32'0 0.4
2017-Feb-20 10:33N 38°02' E 023°32'0 0.0
2017-Feb-20 09:33N 38°02' E 023°32'0 0.0
2017-Feb-20 08:33N 38°02' E 023°32'0 0.0
2017-Feb-20 07:33N 38°02' E 023°32'0 0.0
2017-Feb-20 06:33N 38°02' E 023°32'0 0.0
2017-Feb-18 10:22N 38°02' E 023°32'6 6.9
2017-Feb-18 09:33N 37°57' E 023°35'2 2.4
2017-Feb-18 08:33N 37°56' E 023°38'0 0.0
2017-Feb-18 07:33N 37°56' E 023°38'0 0.0
2017-Feb-18 06:33N 37°56' E 023°38'4 4.0
2017-Feb-18 05:33N 37°57' E 023°33'5 0.6
2017-Feb-17 21:17N 38°02' E 023°32'3 4.0
2017-Feb-17 20:34N 38°02' E 023°36'0 0.1
2017-Feb-17 19:34N 38°02' E 023°36'0 0.0
2017-Feb-17 18:34N 38°02' E 023°36'0 0.0
2017-Feb-17 17:33N 38°02' E 023°36'0 0.0
2017-Feb-17 16:33N 38°02' E 023°36'0 0.3
2017-Feb-17 15:34N 38°02' E 023°35'0 0.0
2017-Feb-17 14:33N 38°02' E 023°35'0 0.0
2017-Feb-17 13:33N 38°02' E 023°35'0 0.0
2017-Feb-17 12:33N 38°02' E 023°35'0 0.0
2017-Feb-17 11:34N 38°02' E 023°35'0 0.0
2017-Feb-17 10:34N 38°02' E 023°35'0 0.0
2017-Feb-17 09:34N 38°02' E 023°35'0 0.0
2017-Feb-17 08:33N 38°02' E 023°35'0 0.0
2017-Feb-17 07:34N 38°02' E 023°35'0 0.0
2017-Feb-17 06:33N 38°02' E 023°35'1 0.5
2017-Feb-17 05:34N 38°01' E 023°35'4 3.9
2017-Feb-17 04:33N 37°57' E 023°34'0 0.0
2017-Feb-17 03:34N 37°57' E 023°34'0 0.0
2017-Feb-17 02:33N 37°57' E 023°34'0 0.0
2017-Feb-17 01:34N 37°57' E 023°34'0 0.0
2017-Feb-17 00:34N 37°57' E 023°34'2 2.3
2017-Feb-16 23:34N 37°56' E 023°37'1 1.5
2017-Feb-16 22:33N 37°57' E 023°38'0 0.1
2017-Feb-16 21:34N 37°57' E 023°38'0 0.0
2017-Feb-16 20:34N 37°57' E 023°38'0 0.0
2017-Feb-16 19:33N 37°57' E 023°38'0 0.0
2017-Feb-16 18:34N 37°57' E 023°38'3 3.1
2017-Feb-16 17:34N 37°57' E 023°35'0 0.0
2017-Feb-16 16:33N 37°57' E 023°35'0 0.0
2017-Feb-16 15:34N 37°57' E 023°35'1 1.3
2017-Feb-16 14:33N 37°58' E 023°36'0 0.0
2017-Feb-16 13:34N 37°58' E 023°36'0 0.0
2017-Feb-16 12:34N 37°58' E 023°36'1 1.1
2017-Feb-16 11:34N 37°57' E 023°35'1 1.2
2017-Feb-16 10:34N 37°57' E 023°34'5 5.1
2017-Feb-16 09:34N 38°02' E 023°32'0 0.0
2017-Feb-16 08:33N 38°02' E 023°32'0 0.0
2017-Feb-16 07:34N 38°02' E 023°32'  

Dump ship's entire track history